sensor_id;sensor_type;location;lat;lon;timestamp;pressure;altitude;pressure_sealevel;temperature;humidity
69127;BME280;56688;50.234;19.292;2023-02-04T00:00:12;97738.30;;;3.33;85.52
69127;BME280;56688;50.234;19.292;2023-02-04T00:02:40;97737.61;;;3.32;85.63
69127;BME280;56688;50.234;19.292;2023-02-04T00:05:08;97735.80;;;3.31;85.65
69127;BME280;56688;50.234;19.292;2023-02-04T00:07:35;97733.09;;;3.30;85.53
69127;BME280;56688;50.234;19.292;2023-02-04T00:10:03;97730.21;;;3.32;85.51
69127;BME280;56688;50.234;19.292;2023-02-04T00:12:30;97730.95;;;3.31;85.57
69127;BME280;56688;50.234;19.292;2023-02-04T00:14:57;97725.83;;;3.32;85.70
69127;BME280;56688;50.234;19.292;2023-02-04T00:17:24;97729.09;;;3.32;85.57
69127;BME280;56688;50.234;19.292;2023-02-04T00:19:51;97729.27;;;3.31;85.48
69127;BME280;56688;50.234;19.292;2023-02-04T00:22:18;97729.89;;;3.30;85.38
69127;BME280;56688;50.234;19.292;2023-02-04T00:24:45;97730.60;;;3.30;85.48
69127;BME280;56688;50.234;19.292;2023-02-04T00:27:15;97728.41;;;3.31;85.41
69127;BME280;56688;50.234;19.292;2023-02-04T00:29:42;97733.69;;;3.30;85.50
69127;BME280;56688;50.234;19.292;2023-02-04T00:32:09;97733.58;;;3.30;85.56
69127;BME280;56688;50.234;19.292;2023-02-04T00:34:37;97733.13;;;3.29;85.49
69127;BME280;56688;50.234;19.292;2023-02-04T00:37:04;97736.95;;;3.30;85.58
69127;BME280;56688;50.234;19.292;2023-02-04T00:39:30;97735.60;;;3.31;85.58
69127;BME280;56688;50.234;19.292;2023-02-04T00:41:57;97731.20;;;3.32;85.69
69127;BME280;56688;50.234;19.292;2023-02-04T00:44:24;97729.06;;;3.33;85.74
69127;BME280;56688;50.234;19.292;2023-02-04T00:46:51;97727.88;;;3.32;85.71
69127;BME280;56688;50.234;19.292;2023-02-04T00:49:18;97724.77;;;3.32;85.60
69127;BME280;56688;50.234;19.292;2023-02-04T00:51:45;97718.54;;;3.31;85.79
69127;BME280;56688;50.234;19.292;2023-02-04T00:54:12;97715.63;;;3.30;85.72
69127;BME280;56688;50.234;19.292;2023-02-04T00:56:42;97719.37;;;3.31;85.75
69127;BME280;56688;50.234;19.292;2023-02-04T00:59:10;97717.95;;;3.33;85.71
69127;BME280;56688;50.234;19.292;2023-02-04T01:01:37;97718.87;;;3.32;85.88
69127;BME280;56688;50.234;19.292;2023-02-04T01:04:04;97711.41;;;3.31;85.83
69127;BME280;56688;50.234;19.292;2023-02-04T01:06:31;97712.50;;;3.33;85.75
69127;BME280;56688;50.234;19.292;2023-02-04T01:08:58;97703.48;;;3.31;85.85
69127;BME280;56688;50.234;19.292;2023-02-04T01:11:25;97708.69;;;3.38;85.66
69127;BME280;56688;50.234;19.292;2023-02-04T01:13:52;97703.54;;;3.38;85.56
69127;BME280;56688;50.234;19.292;2023-02-04T01:16:18;97698.09;;;3.38;85.64
69127;BME280;56688;50.234;19.292;2023-02-04T01:18:45;97695.76;;;3.38;85.57
69127;BME280;56688;50.234;19.292;2023-02-04T01:21:12;97690.07;;;3.39;85.47
69127;BME280;56688;50.234;19.292;2023-02-04T01:23:41;97687.80;;;3.39;85.20
69127;BME280;56688;50.234;19.292;2023-02-04T01:26:08;97689.36;;;3.37;85.09
69127;BME280;56688;50.234;19.292;2023-02-04T01:28:35;97689.55;;;3.35;85.26
69127;BME280;56688;50.234;19.292;2023-02-04T01:31:02;97688.23;;;3.34;85.38
69127;BME280;56688;50.234;19.292;2023-02-04T01:33:29;97682.95;;;3.34;85.30
69127;BME280;56688;50.234;19.292;2023-02-04T01:35:55;97686.29;;;3.36;85.25
69127;BME280;56688;50.234;19.292;2023-02-04T01:38:22;97689.73;;;3.39;85.31
69127;BME280;56688;50.234;19.292;2023-02-04T01:40:49;97701.66;;;3.39;85.29
69127;BME280;56688;50.234;19.292;2023-02-04T01:43:16;97716.52;;;3.40;85.13
69127;BME280;56688;50.234;19.292;2023-02-04T01:45:44;97721.14;;;3.40;85.08
69127;BME280;56688;50.234;19.292;2023-02-04T01:48:12;97739.77;;;3.43;85.20
69127;BME280;56688;50.234;19.292;2023-02-04T01:50:49;97744.42;;;3.44;85.11
69127;BME280;56688;50.234;19.292;2023-02-04T01:53:21;97746.50;;;3.43;84.70
69127;BME280;56688;50.234;19.292;2023-02-04T01:55:48;97751.89;;;3.40;84.55
69127;BME280;56688;50.234;19.292;2023-02-04T01:58:15;97753.23;;;3.38;84.39
69127;BME280;56688;50.234;19.292;2023-02-04T02:00:42;97754.05;;;3.34;84.30
69127;BME280;56688;50.234;19.292;2023-02-04T02:03:10;97762.60;;;3.32;84.02
69127;BME280;56688;50.234;19.292;2023-02-04T02:05:45;97758.11;;;3.27;83.66
69127;BME280;56688;50.234;19.292;2023-02-04T02:08:14;97755.46;;;3.21;83.60
69127;BME280;56688;50.234;19.292;2023-02-04T02:10:44;97754.52;;;3.15;83.62
69127;BME280;56688;50.234;19.292;2023-02-04T02:13:14;97754.27;;;3.11;83.56
69127;BME280;56688;50.234;19.292;2023-02-04T02:15:42;97754.80;;;3.08;83.59
69127;BME280;56688;50.234;19.292;2023-02-04T02:18:09;97758.16;;;3.05;83.44
69127;BME280;56688;50.234;19.292;2023-02-04T02:20:36;97766.15;;;3.06;83.50
69127;BME280;56688;50.234;19.292;2023-02-04T02:23:23;97765.21;;;3.03;83.21
69127;BME280;56688;50.234;19.292;2023-02-04T02:25:52;97764.31;;;2.99;83.07
69127;BME280;56688;50.234;19.292;2023-02-04T02:28:20;97768.79;;;2.94;83.04
69127;BME280;56688;50.234;19.292;2023-02-04T02:30:48;97768.78;;;2.93;83.29
69127;BME280;56688;50.234;19.292;2023-02-04T02:33:17;97771.95;;;2.89;83.03
69127;BME280;56688;50.234;19.292;2023-02-04T02:35:45;97775.80;;;2.88;83.00
69127;BME280;56688;50.234;19.292;2023-02-04T02:38:15;97778.07;;;2.85;82.98
69127;BME280;56688;50.234;19.292;2023-02-04T02:40:43;97782.95;;;2.80;83.01
69127;BME280;56688;50.234;19.292;2023-02-04T02:43:15;97787.54;;;2.74;82.89
69127;BME280;56688;50.234;19.292;2023-02-04T02:45:44;97786.70;;;2.71;83.01
69127;BME280;56688;50.234;19.292;2023-02-04T02:48:11;97786.90;;;2.67;82.91
69127;BME280;56688;50.234;19.292;2023-02-04T02:50:38;97789.13;;;2.62;82.55
69127;BME280;56688;50.234;19.292;2023-02-04T02:53:11;97793.84;;;2.58;82.57
69127;BME280;56688;50.234;19.292;2023-02-04T02:55:39;97794.98;;;2.51;82.50
69127;BME280;56688;50.234;19.292;2023-02-04T02:58:33;97798.10;;;2.45;82.55
69127;BME280;56688;50.234;19.292;2023-02-04T03:01:04;97806.86;;;2.38;82.69
69127;BME280;56688;50.234;19.292;2023-02-04T03:03:37;97810.19;;;2.35;82.70
69127;BME280;56688;50.234;19.292;2023-02-04T03:06:12;97812.55;;;2.33;82.83
69127;BME280;56688;50.234;19.292;2023-02-04T03:08:42;97816.69;;;2.32;82.88
69127;BME280;56688;50.234;19.292;2023-02-04T03:11:10;97822.09;;;2.30;82.79
69127;BME280;56688;50.234;19.292;2023-02-04T03:13:37;97833.68;;;2.27;82.71
69127;BME280;56688;50.234;19.292;2023-02-04T03:16:05;97836.73;;;2.22;82.71
69127;BME280;56688;50.234;19.292;2023-02-04T03:18:35;97843.78;;;2.17;82.68
69127;BME280;56688;50.234;19.292;2023-02-04T03:21:03;97849.65;;;2.11;82.74
69127;BME280;56688;50.234;19.292;2023-02-04T03:23:33;97855.29;;;2.07;83.02
69127;BME280;56688;50.234;19.292;2023-02-04T03:26:01;97860.80;;;2.06;82.66
69127;BME280;56688;50.234;19.292;2023-02-04T03:28:29;97864.29;;;2.07;82.80
69127;BME280;56688;50.234;19.292;2023-02-04T03:30:57;97866.21;;;2.07;82.95
69127;BME280;56688;50.234;19.292;2023-02-04T03:33:26;97870.23;;;2.03;82.87
69127;BME280;56688;50.234;19.292;2023-02-04T03:35:57;97875.74;;;1.99;82.85
69127;BME280;56688;50.234;19.292;2023-02-04T03:38:24;97878.09;;;1.95;82.85
69127;BME280;56688;50.234;19.292;2023-02-04T03:40:51;97881.69;;;1.90;82.84
69127;BME280;56688;50.234;19.292;2023-02-04T03:43:18;97885.27;;;1.88;82.97
69127;BME280;56688;50.234;19.292;2023-02-04T03:45:45;97886.66;;;1.86;83.00
69127;BME280;56688;50.234;19.292;2023-02-04T03:48:12;97902.96;;;1.85;83.09
69127;BME280;56688;50.234;19.292;2023-02-04T03:50:39;97908.25;;;1.79;83.03
69127;BME280;56688;50.234;19.292;2023-02-04T03:53:06;97922.33;;;1.77;83.22
69127;BME280;56688;50.234;19.292;2023-02-04T03:55:32;97933.21;;;1.77;83.21
69127;BME280;56688;50.234;19.292;2023-02-04T03:57:59;97938.78;;;1.78;83.18
69127;BME280;56688;50.234;19.292;2023-02-04T04:00:26;97948.42;;;1.76;83.19
69127;BME280;56688;50.234;19.292;2023-02-04T04:02:53;97966.40;;;1.73;83.21
69127;BME280;56688;50.234;19.292;2023-02-04T04:05:20;97980.20;;;1.71;83.32
69127;BME280;56688;50.234;19.292;2023-02-04T04:07:47;97984.23;;;1.66;83.15
69127;BME280;56688;50.234;19.292;2023-02-04T04:10:15;98001.21;;;1.64;83.32
69127;BME280;56688;50.234;19.292;2023-02-04T04:12:41;98021.20;;;1.62;83.34
69127;BME280;56688;50.234;19.292;2023-02-04T04:15:09;98040.77;;;1.59;83.07
69127;BME280;56688;50.234;19.292;2023-02-04T04:17:35;98057.22;;;1.54;82.83
69127;BME280;56688;50.234;19.292;2023-02-04T04:20:03;98082.72;;;1.50;82.74
69127;BME280;56688;50.234;19.292;2023-02-04T04:22:30;98088.60;;;1.45;82.44
69127;BME280;56688;50.234;19.292;2023-02-04T04:24:57;98096.27;;;1.40;82.20
69127;BME280;56688;50.234;19.292;2023-02-04T04:27:23;98114.27;;;1.34;81.82
69127;BME280;56688;50.234;19.292;2023-02-04T04:29:51;98134.10;;;1.27;81.52
69127;BME280;56688;50.234;19.292;2023-02-04T04:32:19;98145.43;;;1.20;81.43
69127;BME280;56688;50.234;19.292;2023-02-04T04:34:46;98157.27;;;1.14;81.02
69127;BME280;56688;50.234;19.292;2023-02-04T04:37:13;98179.09;;;1.07;80.42
69127;BME280;56688;50.234;19.292;2023-02-04T04:39:40;98191.38;;;0.98;80.49
69127;BME280;56688;50.234;19.292;2023-02-04T04:42:07;98208.60;;;0.94;80.59
69127;BME280;56688;50.234;19.292;2023-02-04T04:44:33;98223.39;;;0.92;80.78
69127;BME280;56688;50.234;19.292;2023-02-04T04:47:00;98239.23;;;0.87;80.64
69127;BME280;56688;50.234;19.292;2023-02-04T04:49:28;98255.29;;;0.81;80.07
69127;BME280;56688;50.234;19.292;2023-02-04T04:51:56;98270.28;;;0.74;80.25
69127;BME280;56688;50.234;19.292;2023-02-04T04:54:23;98283.65;;;0.70;80.05
69127;BME280;56688;50.234;19.292;2023-02-04T04:56:49;98294.64;;;0.64;80.30
69127;BME280;56688;50.234;19.292;2023-02-04T04:59:16;98309.02;;;0.60;80.55
69127;BME280;56688;50.234;19.292;2023-02-04T05:01:43;98321.85;;;0.56;80.34
69127;BME280;56688;50.234;19.292;2023-02-04T05:04:10;98335.45;;;0.50;80.26
69127;BME280;56688;50.234;19.292;2023-02-04T05:06:36;98345.20;;;0.47;80.55
69127;BME280;56688;50.234;19.292;2023-02-04T05:09:03;98357.52;;;0.44;80.38
69127;BME280;56688;50.234;19.292;2023-02-04T05:11:30;98376.75;;;0.40;80.33
69127;BME280;56688;50.234;19.292;2023-02-04T05:13:57;98395.98;;;0.35;80.36
69127;BME280;56688;50.234;19.292;2023-02-04T05:16:23;98413.44;;;0.31;80.46
69127;BME280;56688;50.234;19.292;2023-02-04T05:18:50;98423.05;;;0.27;80.37
69127;BME280;56688;50.234;19.292;2023-02-04T05:21:17;98439.89;;;0.25;80.22
69127;BME280;56688;50.234;19.292;2023-02-04T05:23:44;98454.86;;;0.21;80.09
69127;BME280;56688;50.234;19.292;2023-02-04T05:26:11;98460.84;;;0.17;80.18
69127;BME280;56688;50.234;19.292;2023-02-04T05:28:47;98472.49;;;0.11;80.42
69127;BME280;56688;50.234;19.292;2023-02-04T05:31:14;98488.31;;;0.06;80.42
69127;BME280;56688;50.234;19.292;2023-02-04T05:33:41;98506.23;;;0.04;80.41
69127;BME280;56688;50.234;19.292;2023-02-04T05:36:08;98521.41;;;0.02;80.32
69127;BME280;56688;50.234;19.292;2023-02-04T05:38:35;98540.58;;;-0.01;79.84
69127;BME280;56688;50.234;19.292;2023-02-04T05:41:01;98557.51;;;-0.05;80.01
69127;BME280;56688;50.234;19.292;2023-02-04T05:43:28;98577.70;;;-0.08;80.01
69127;BME280;56688;50.234;19.292;2023-02-04T05:45:55;98590.02;;;-0.09;79.77
69127;BME280;56688;50.234;19.292;2023-02-04T05:48:23;98609.87;;;-0.12;79.27
69127;BME280;56688;50.234;19.292;2023-02-04T05:50:50;98629.80;;;-0.16;79.18
69127;BME280;56688;50.234;19.292;2023-02-04T05:53:17;98641.52;;;-0.20;79.32
69127;BME280;56688;50.234;19.292;2023-02-04T05:55:44;98662.31;;;-0.22;79.09
69127;BME280;56688;50.234;19.292;2023-02-04T05:58:11;98675.41;;;-0.22;79.37
69127;BME280;56688;50.234;19.292;2023-02-04T06:00:38;98694.76;;;-0.23;79.20
69127;BME280;56688;50.234;19.292;2023-02-04T06:03:04;98709.80;;;-0.25;78.91
69127;BME280;56688;50.234;19.292;2023-02-04T06:05:31;98724.97;;;-0.29;78.90
69127;BME280;56688;50.234;19.292;2023-02-04T06:07:58;98748.36;;;-0.31;78.98
69127;BME280;56688;50.234;19.292;2023-02-04T06:10:25;98759.72;;;-0.31;79.07
69127;BME280;56688;50.234;19.292;2023-02-04T06:12:52;98777.19;;;-0.33;78.90
69127;BME280;56688;50.234;19.292;2023-02-04T06:15:18;98788.23;;;-0.35;78.96
69127;BME280;56688;50.234;19.292;2023-02-04T06:17:46;98800.84;;;-0.38;78.84
69127;BME280;56688;50.234;19.292;2023-02-04T06:20:13;98812.10;;;-0.39;78.38
69127;BME280;56688;50.234;19.292;2023-02-04T06:22:40;98830.99;;;-0.38;78.48
69127;BME280;56688;50.234;19.292;2023-02-04T06:25:07;98842.23;;;-0.39;77.66
69127;BME280;56688;50.234;19.292;2023-02-04T06:27:34;98856.45;;;-0.42;78.01
69127;BME280;56688;50.234;19.292;2023-02-04T06:30:01;98868.00;;;-0.42;77.81
69127;BME280;56688;50.234;19.292;2023-02-04T06:32:28;98881.06;;;-0.41;77.64
69127;BME280;56688;50.234;19.292;2023-02-04T06:34:54;98891.20;;;-0.41;77.53
69127;BME280;56688;50.234;19.292;2023-02-04T06:37:21;98909.35;;;-0.42;77.07
69127;BME280;56688;50.234;19.292;2023-02-04T06:39:49;98929.48;;;-0.44;77.11
69127;BME280;56688;50.234;19.292;2023-02-04T06:42:17;98936.37;;;-0.46;77.19
69127;BME280;56688;50.234;19.292;2023-02-04T06:44:44;98947.15;;;-0.45;76.98
69127;BME280;56688;50.234;19.292;2023-02-04T06:47:11;98961.83;;;-0.44;76.76
69127;BME280;56688;50.234;19.292;2023-02-04T06:49:37;98971.04;;;-0.43;76.50
69127;BME280;56688;50.234;19.292;2023-02-04T06:52:04;98978.85;;;-0.45;76.53
69127;BME280;56688;50.234;19.292;2023-02-04T06:54:31;98986.77;;;-0.45;76.48
69127;BME280;56688;50.234;19.292;2023-02-04T06:56:58;98998.44;;;-0.45;76.28
69127;BME280;56688;50.234;19.292;2023-02-04T06:59:33;99012.92;;;-0.44;76.39
69127;BME280;56688;50.234;19.292;2023-02-04T07:02:00;99031.98;;;-0.44;76.52
69127;BME280;56688;50.234;19.292;2023-02-04T07:04:27;99046.14;;;-0.44;76.42
69127;BME280;56688;50.234;19.292;2023-02-04T07:06:55;99059.05;;;-0.43;75.87
69127;BME280;56688;50.234;19.292;2023-02-04T07:09:22;99070.39;;;-0.43;75.62
69127;BME280;56688;50.234;19.292;2023-02-04T07:11:49;99079.25;;;-0.42;75.35
69127;BME280;56688;50.234;19.292;2023-02-04T07:14:16;99089.75;;;-0.42;75.27
69127;BME280;56688;50.234;19.292;2023-02-04T07:16:44;99100.89;;;-0.43;74.71
69127;BME280;56688;50.234;19.292;2023-02-04T07:19:11;99109.67;;;-0.44;74.17
69127;BME280;56688;50.234;19.292;2023-02-04T07:21:40;99120.37;;;-0.42;74.40
69127;BME280;56688;50.234;19.292;2023-02-04T07:24:06;99131.84;;;-0.41;74.36
69127;BME280;56688;50.234;19.292;2023-02-04T07:26:33;99144.83;;;-0.38;74.75
69127;BME280;56688;50.234;19.292;2023-02-04T07:29:00;99152.87;;;-0.38;75.08
69127;BME280;56688;50.234;19.292;2023-02-04T07:31:27;99163.38;;;-0.38;75.08
69127;BME280;56688;50.234;19.292;2023-02-04T07:33:54;99171.30;;;-0.36;74.69
69127;BME280;56688;50.234;19.292;2023-02-04T07:36:21;99175.23;;;-0.36;74.92
69127;BME280;56688;50.234;19.292;2023-02-04T07:38:51;99182.20;;;-0.35;75.02
69127;BME280;56688;50.234;19.292;2023-02-04T07:41:17;99192.92;;;-0.36;74.37
69127;BME280;56688;50.234;19.292;2023-02-04T07:43:45;99200.74;;;-0.37;74.47
69127;BME280;56688;50.234;19.292;2023-02-04T07:46:12;99204.76;;;-0.37;74.28
69127;BME280;56688;50.234;19.292;2023-02-04T07:48:39;99209.59;;;-0.36;74.34
69127;BME280;56688;50.234;19.292;2023-02-04T07:51:06;99211.02;;;-0.34;73.94
69127;BME280;56688;50.234;19.292;2023-02-04T07:53:33;99217.58;;;-0.35;73.27
69127;BME280;56688;50.234;19.292;2023-02-04T07:55:59;99225.57;;;-0.37;72.83
69127;BME280;56688;50.234;19.292;2023-02-04T07:58:26;99235.23;;;-0.40;73.06
69127;BME280;56688;50.234;19.292;2023-02-04T08:00:53;99238.83;;;-0.39;73.54
69127;BME280;56688;50.234;19.292;2023-02-04T08:03:20;99242.50;;;-0.36;73.56
69127;BME280;56688;50.234;19.292;2023-02-04T08:05:47;99248.15;;;-0.32;73.61
69127;BME280;56688;50.234;19.292;2023-02-04T08:08:14;99255.61;;;-0.28;73.64
69127;BME280;56688;50.234;19.292;2023-02-04T08:10:41;99270.58;;;-0.24;73.32
69127;BME280;56688;50.234;19.292;2023-02-04T08:13:07;99278.27;;;-0.24;72.91
69127;BME280;56688;50.234;19.292;2023-02-04T08:15:34;99284.73;;;-0.26;72.69
69127;BME280;56688;50.234;19.292;2023-02-04T08:18:02;99294.73;;;-0.29;72.33
69127;BME280;56688;50.234;19.292;2023-02-04T08:20:29;99304.45;;;-0.28;72.39
69127;BME280;56688;50.234;19.292;2023-02-04T08:22:56;99305.70;;;-0.23;72.43
69127;BME280;56688;50.234;19.292;2023-02-04T08:25:23;99316.52;;;-0.19;72.55
69127;BME280;56688;50.234;19.292;2023-02-04T08:27:50;99322.92;;;-0.16;72.11
69127;BME280;56688;50.234;19.292;2023-02-04T08:30:17;99328.07;;;-0.12;71.81
69127;BME280;56688;50.234;19.292;2023-02-04T08:32:44;99337.46;;;-0.05;70.83
69127;BME280;56688;50.234;19.292;2023-02-04T08:35:11;99350.29;;;0.02;70.78
69127;BME280;56688;50.234;19.292;2023-02-04T08:37:38;99354.21;;;0.12;70.77
69127;BME280;56688;50.234;19.292;2023-02-04T08:40:06;99355.67;;;0.24;70.12
69127;BME280;56688;50.234;19.292;2023-02-04T08:42:33;99359.27;;;0.38;69.80
69127;BME280;56688;50.234;19.292;2023-02-04T08:45:00;99365.30;;;0.53;68.96
69127;BME280;56688;50.234;19.292;2023-02-04T08:47:27;99371.69;;;0.62;68.43
69127;BME280;56688;50.234;19.292;2023-02-04T08:49:54;99380.22;;;0.71;68.20
69127;BME280;56688;50.234;19.292;2023-02-04T08:52:21;99385.33;;;0.78;68.21
69127;BME280;56688;50.234;19.292;2023-02-04T08:54:47;99391.09;;;0.83;68.41
69127;BME280;56688;50.234;19.292;2023-02-04T08:57:14;99392.33;;;0.89;67.68
69127;BME280;56688;50.234;19.292;2023-02-04T08:59:41;99392.64;;;0.99;67.40
69127;BME280;56688;50.234;19.292;2023-02-04T09:02:09;99398.88;;;1.13;67.41
69127;BME280;56688;50.234;19.292;2023-02-04T09:04:36;99406.23;;;1.33;67.07
69127;BME280;56688;50.234;19.292;2023-02-04T09:07:02;99413.59;;;1.51;66.00
69127;BME280;56688;50.234;19.292;2023-02-04T09:09:29;99420.82;;;1.60;65.52
69127;BME280;56688;50.234;19.292;2023-02-04T09:11:56;99430.45;;;1.65;65.11
69127;BME280;56688;50.234;19.292;2023-02-04T09:14:23;99432.28;;;1.69;65.04
69127;BME280;56688;50.234;19.292;2023-02-04T09:16:50;99433.98;;;1.70;64.25
69127;BME280;56688;50.234;19.292;2023-02-04T09:19:17;99439.02;;;1.71;64.11
69127;BME280;56688;50.234;19.292;2023-02-04T09:21:52;99442.81;;;1.69;63.81
69127;BME280;56688;50.234;19.292;2023-02-04T09:24:19;99450.59;;;1.68;64.08
69127;BME280;56688;50.234;19.292;2023-02-04T09:26:49;99452.59;;;1.75;64.27
69127;BME280;56688;50.234;19.292;2023-02-04T09:29:16;99461.39;;;1.82;63.56
69127;BME280;56688;50.234;19.292;2023-02-04T09:31:43;99464.86;;;2.10;63.60
69127;BME280;56688;50.234;19.292;2023-02-04T09:34:10;99469.47;;;2.59;63.11
69127;BME280;56688;50.234;19.292;2023-02-04T09:36:37;99472.16;;;3.03;62.44
69127;BME280;56688;50.234;19.292;2023-02-04T09:39:05;99477.55;;;3.54;61.78
69127;BME280;56688;50.234;19.292;2023-02-04T09:41:34;99480.65;;;3.93;60.54
69127;BME280;56688;50.234;19.292;2023-02-04T09:44:03;99483.66;;;4.10;59.23
69127;BME280;56688;50.234;19.292;2023-02-04T09:46:30;99493.74;;;4.12;58.59
69127;BME280;56688;50.234;19.292;2023-02-04T09:48:58;99495.15;;;3.99;58.54
69127;BME280;56688;50.234;19.292;2023-02-04T09:51:27;99502.05;;;3.78;57.97
69127;BME280;56688;50.234;19.292;2023-02-04T09:54:02;99505.45;;;3.58;57.91
69127;BME280;56688;50.234;19.292;2023-02-04T09:56:30;99514.79;;;3.39;58.29
69127;BME280;56688;50.234;19.292;2023-02-04T09:58:57;99518.92;;;3.26;58.22
69127;BME280;56688;50.234;19.292;2023-02-04T10:01:25;99515.55;;;3.22;57.66
69127;BME280;56688;50.234;19.292;2023-02-04T10:03:54;99522.42;;;3.40;57.57
69127;BME280;56688;50.234;19.292;2023-02-04T10:06:25;99519.50;;;3.78;56.74
69127;BME280;56688;50.234;19.292;2023-02-04T10:08:53;99520.34;;;4.25;56.06
69127;BME280;56688;50.234;19.292;2023-02-04T10:11:22;99523.72;;;4.62;55.40
69127;BME280;56688;50.234;19.292;2023-02-04T10:13:53;99519.29;;;4.98;55.03
69127;BME280;56688;50.234;19.292;2023-02-04T10:16:27;99521.75;;;5.07;53.74
69127;BME280;56688;50.234;19.292;2023-02-04T10:18:58;99524.89;;;4.78;52.62
69127;BME280;56688;50.234;19.292;2023-02-04T10:21:30;99529.44;;;4.44;52.56
69127;BME280;56688;50.234;19.292;2023-02-04T10:24:00;99529.65;;;4.26;53.40
69127;BME280;56688;50.234;19.292;2023-02-04T10:26:29;99526.32;;;4.58;52.89
69127;BME280;56688;50.234;19.292;2023-02-04T10:28:58;99526.08;;;4.93;52.53
69127;BME280;56688;50.234;19.292;2023-02-04T10:36:38;99544.01;;;4.40;51.28
69127;BME280;56688;50.234;19.292;2023-02-04T10:39:09;99554.49;;;4.06;51.67
69127;BME280;56688;50.234;19.292;2023-02-04T10:41:38;99551.06;;;3.94;52.64
69127;BME280;56688;50.234;19.292;2023-02-04T10:44:09;99551.50;;;3.97;52.07
69127;BME280;56688;50.234;19.292;2023-02-04T10:46:36;99557.14;;;4.04;51.74
69127;BME280;56688;50.234;19.292;2023-02-04T10:49:04;99564.38;;;4.15;52.09
69127;BME280;56688;50.234;19.292;2023-02-04T10:51:32;99566.75;;;4.18;52.12
69127;BME280;56688;50.234;19.292;2023-02-04T10:53:58;99574.49;;;4.12;52.06
69127;BME280;56688;50.234;19.292;2023-02-04T10:56:41;99579.69;;;3.95;53.18
69127;BME280;56688;50.234;19.292;2023-02-04T10:59:20;99585.13;;;3.73;53.43
69127;BME280;56688;50.234;19.292;2023-02-04T11:01:48;99591.31;;;3.50;53.91
69127;BME280;56688;50.234;19.292;2023-02-04T11:04:15;99595.65;;;3.41;53.84
69127;BME280;56688;50.234;19.292;2023-02-04T11:06:41;99602.61;;;3.31;53.97
69127;BME280;56688;50.234;19.292;2023-02-04T11:09:12;99603.79;;;3.24;53.72
69127;BME280;56688;50.234;19.292;2023-02-04T11:11:48;99592.18;;;3.52;53.75
69127;BME280;56688;50.234;19.292;2023-02-04T11:14:27;99597.69;;;3.72;51.94
69127;BME280;56688;50.234;19.292;2023-02-04T11:16:56;99600.15;;;3.81;51.39
69127;BME280;56688;50.234;19.292;2023-02-04T11:22:19;99595.58;;;4.55;49.62
69127;BME280;56688;50.234;19.292;2023-02-04T11:24:47;99601.77;;;4.67;50.26
69127;BME280;56688;50.234;19.292;2023-02-04T11:27:24;99600.55;;;4.85;49.17
69127;BME280;56688;50.234;19.292;2023-02-04T11:30:05;99604.51;;;5.01;48.95
69127;BME280;56688;50.234;19.292;2023-02-04T11:32:34;99605.77;;;5.03;48.74
69127;BME280;56688;50.234;19.292;2023-02-04T11:35:16;99614.33;;;4.95;48.85
69127;BME280;56688;50.234;19.292;2023-02-04T11:37:46;99617.98;;;4.98;48.10
69127;BME280;56688;50.234;19.292;2023-02-04T11:40:23;99625.40;;;4.90;47.61
69127;BME280;56688;50.234;19.292;2023-02-04T11:43:01;99627.66;;;4.73;47.80
69127;BME280;56688;50.234;19.292;2023-02-04T11:45:32;99637.63;;;4.52;47.96
69127;BME280;56688;50.234;19.292;2023-02-04T11:48:02;99638.00;;;4.36;48.28
69127;BME280;56688;50.234;19.292;2023-02-04T11:50:32;99646.20;;;4.24;48.03
69127;BME280;56688;50.234;19.292;2023-02-04T11:53:00;99655.95;;;4.17;47.95
69127;BME280;56688;50.234;19.292;2023-02-04T11:55:29;99650.91;;;4.20;46.99
69127;BME280;56688;50.234;19.292;2023-02-04T11:57:57;99654.27;;;4.17;47.24
69127;BME280;56688;50.234;19.292;2023-02-04T12:00:28;99656.13;;;4.01;47.07
69127;BME280;56688;50.234;19.292;2023-02-04T12:02:58;99659.04;;;3.83;47.78
69127;BME280;56688;50.234;19.292;2023-02-04T12:05:38;99662.20;;;3.60;48.31
69127;BME280;56688;50.234;19.292;2023-02-04T12:10:59;99662.63;;;3.12;48.97
69127;BME280;56688;50.234;19.292;2023-02-04T12:13:28;99665.63;;;2.88;49.26
69127;BME280;56688;50.234;19.292;2023-02-04T12:16:05;99671.00;;;2.69;50.30
69127;BME280;56688;50.234;19.292;2023-02-04T12:18:34;99670.02;;;2.54;50.83
69127;BME280;56688;50.234;19.292;2023-02-04T12:21:02;99670.60;;;2.40;51.17
69127;BME280;56688;50.234;19.292;2023-02-04T12:23:30;99670.27;;;2.30;51.75
69127;BME280;56688;50.234;19.292;2023-02-04T12:25:57;99677.04;;;2.21;51.61
69127;BME280;56688;50.234;19.292;2023-02-04T12:28:24;99679.19;;;2.21;51.08
69127;BME280;56688;50.234;19.292;2023-02-04T12:30:51;99679.59;;;2.20;50.55
69127;BME280;56688;50.234;19.292;2023-02-04T12:33:18;99685.29;;;2.12;50.39
69127;BME280;56688;50.234;19.292;2023-02-04T12:35:46;99691.48;;;1.98;50.57
69127;BME280;56688;50.234;19.292;2023-02-04T12:38:12;99694.42;;;1.83;51.07
69127;BME280;56688;50.234;19.292;2023-02-04T12:40:39;99700.25;;;1.67;50.71
69127;BME280;56688;50.234;19.292;2023-02-04T12:43:07;99703.52;;;1.50;51.38
69127;BME280;56688;50.234;19.292;2023-02-04T12:45:33;99701.95;;;1.34;52.27
69127;BME280;56688;50.234;19.292;2023-02-04T12:48:00;99708.04;;;1.24;53.44
69127;BME280;56688;50.234;19.292;2023-02-04T12:50:27;99707.50;;;1.19;53.79
69127;BME280;56688;50.234;19.292;2023-02-04T12:52:56;99711.75;;;1.16;54.79
69127;BME280;56688;50.234;19.292;2023-02-04T12:55:25;99709.55;;;1.14;55.04
69127;BME280;56688;50.234;19.292;2023-02-04T12:57:53;99711.95;;;1.18;54.88
69127;BME280;56688;50.234;19.292;2023-02-04T13:00:21;99710.52;;;1.24;55.08
69127;BME280;56688;50.234;19.292;2023-02-04T13:02:48;99715.86;;;1.30;54.20
69127;BME280;56688;50.234;19.292;2023-02-04T13:05:16;99724.52;;;1.38;53.79
69127;BME280;56688;50.234;19.292;2023-02-04T13:07:42;99727.49;;;1.46;53.83
69127;BME280;56688;50.234;19.292;2023-02-04T13:10:10;99729.46;;;1.51;53.60
69127;BME280;56688;50.234;19.292;2023-02-04T13:12:38;99737.51;;;1.51;53.50